createdAt,value
2022-09-23T00:04:37.558Z,8.80
2022-09-23T00:09:39.509Z,8.70
2022-09-23T00:14:41.442Z,8.70
2022-09-23T00:19:43.485Z,8.70
2022-09-23T00:24:45.366Z,8.70
2022-09-23T00:29:48.002Z,8.70
2022-09-23T00:34:50.015Z,8.60
2022-09-23T00:39:51.897Z,8.60
2022-09-23T00:44:56.390Z,8.60
2022-09-23T00:50:36.090Z,8.60
2022-09-23T00:55:46.400Z,8.60
2022-09-23T01:00:48.392Z,8.60
2022-09-23T01:05:51.454Z,8.60
2022-09-23T01:11:02.184Z,8.60
2022-09-23T01:16:20.865Z,8.60
2022-09-23T01:21:33.350Z,8.60
2022-09-23T01:26:57.047Z,8.50
2022-09-23T01:32:17.795Z,8.50
2022-09-23T01:37:52.616Z,8.50
2022-09-23T01:43:02.092Z,8.30
2022-09-23T01:48:14.026Z,8.30
2022-09-23T01:53:22.153Z,8.40
2022-09-23T01:58:30.557Z,8.50
2022-09-23T02:03:42.083Z,8.40
2022-09-23T02:09:01.755Z,8.40
2022-09-23T02:14:15.522Z,8.40
2022-09-23T02:19:35.963Z,8.30
2022-09-23T02:24:39.549Z,8.40
2022-09-23T02:29:54.009Z,8.40
2022-09-23T02:35:04.973Z,8.40
2022-09-23T02:40:28.014Z,8.50
2022-09-23T02:45:30.301Z,8.50
2022-09-23T02:50:33.655Z,8.40
2022-09-23T02:55:35.579Z,8.20
2022-09-23T03:01:02.770Z,8.30
2022-09-23T03:06:49.095Z,8.20
2022-09-23T03:12:00.290Z,8.20
2022-09-23T03:17:14.501Z,8.10
2022-09-23T03:22:22.768Z,8.10
2022-09-23T03:27:27.631Z,8.00
2022-09-23T03:32:32.046Z,8.10
2022-09-23T03:37:40.033Z,8.20
2022-09-23T03:42:42.909Z,8.30
2022-09-23T03:47:45.491Z,8.20
2022-09-23T03:52:49.642Z,8.10
2022-09-23T03:57:52.115Z,8.10
2022-09-23T04:02:53.950Z,8.20
2022-09-23T04:07:56.023Z,8.10
2022-09-23T04:12:57.871Z,8.10
2022-09-23T04:17:59.724Z,8.00
2022-09-23T04:23:01.597Z,8.00
2022-09-23T04:28:03.458Z,7.90
2022-09-23T04:33:05.324Z,7.90
2022-09-23T04:38:07.282Z,7.90
2022-09-23T04:43:13.483Z,7.90
2022-09-23T04:48:16.158Z,7.80
2022-09-23T04:53:19.129Z,7.90
2022-09-23T04:58:23.095Z,7.90
2022-09-23T05:03:25.157Z,7.80
2022-09-23T05:08:27.042Z,7.90
2022-09-23T05:13:28.955Z,7.90
2022-09-23T05:18:32.504Z,7.80
2022-09-23T05:23:34.375Z,7.80
2022-09-23T05:28:37.582Z,7.60
2022-09-23T05:33:39.599Z,7.60
2022-09-23T05:38:42.485Z,7.60
2022-09-23T05:43:44.756Z,7.70
2022-09-23T05:48:47.584Z,7.70
2022-09-23T05:53:52.583Z,7.90
2022-09-23T05:58:57.024Z,7.90
2022-09-23T06:03:59.927Z,8.00
2022-09-23T06:09:02.209Z,8.20
2022-09-23T06:14:04.872Z,8.10
2022-09-23T06:19:07.191Z,8.10
2022-09-23T06:24:11.074Z,8.20
2022-09-23T06:29:16.422Z,8.40
2022-09-23T06:34:19.768Z,8.40
2022-09-23T06:39:21.869Z,8.50
2022-09-23T06:44:23.781Z,8.90
2022-09-23T06:49:26.662Z,9.10
2022-09-23T06:54:29.012Z,9.10
2022-09-23T06:59:30.832Z,9.10
2022-09-23T07:04:33.758Z,8.90
2022-09-23T07:09:37.908Z,9.00
2022-09-23T07:14:40.706Z,9.20
2022-09-23T07:19:44.503Z,9.50
2022-09-23T07:24:47.331Z,9.70
2022-09-23T07:29:51.459Z,10.00
2022-09-23T07:34:54.642Z,10.20
2022-09-23T07:39:57.774Z,10.30
2022-09-23T07:45:00.520Z,10.10
2022-09-23T07:50:03.260Z,10.30
2022-09-23T07:55:07.196Z,10.20
2022-09-23T08:00:11.278Z,10.40
2022-09-23T08:05:16.968Z,10.90
2022-09-23T08:10:21.198Z,11.10
2022-09-23T08:15:23.894Z,11.00
2022-09-23T08:20:47.261Z,11.10
2022-09-23T08:26:05.376Z,11.40
2022-09-23T08:31:08.774Z,11.60
2022-09-23T08:36:11.229Z,11.80
2022-09-23T08:41:42.811Z,11.50
2022-09-23T08:47:00.569Z,11.80
2022-09-23T08:52:12.168Z,11.70
2022-09-23T08:58:02.256Z,11.60
2022-09-23T09:03:18.274Z,11.80
2022-09-23T09:08:26.560Z,11.80
2022-09-23T09:13:44.879Z,11.50
2022-09-23T09:19:00.474Z,12.60
2022-09-23T09:24:07.524Z,12.90
2022-09-23T09:29:36.107Z,12.90
2022-09-23T09:34:54.631Z,13.70
2022-09-23T09:39:56.619Z,15.10
2022-09-23T09:45:02.871Z,15.00
2022-09-23T09:50:07.780Z,16.10
2022-09-23T09:55:12.724Z,15.70
2022-09-23T10:00:26.462Z,16.10
2022-09-23T10:05:49.212Z,15.60
2022-09-23T10:11:16.979Z,15.70
2022-09-23T10:16:18.865Z,14.30
2022-09-23T10:21:27.791Z,13.30
2022-09-23T10:26:40.373Z,13.50
2022-09-23T10:31:42.963Z,15.30
2022-09-23T10:36:55.544Z,14.70
2022-09-23T10:42:39.605Z,14.00
2022-09-23T10:48:03.292Z,13.70
2022-09-23T10:53:22.885Z,13.80
2022-09-23T10:58:42.787Z,13.70
2022-09-23T11:04:09.285Z,13.10
2022-09-23T11:09:23.621Z,13.20
2022-09-23T11:14:45.866Z,13.00
2022-09-23T11:20:21.408Z,13.30
2022-09-23T11:25:50.872Z,13.90
2022-09-23T11:31:01.906Z,14.90
2022-09-23T11:36:11.217Z,15.50
2022-09-23T11:41:25.901Z,14.90
2022-09-23T11:46:38.857Z,14.30
2022-09-23T11:52:01.533Z,14.20
2022-09-23T11:57:08.032Z,14.00
2022-09-23T12:02:58.815Z,13.80
2022-09-23T12:08:08.009Z,14.10
2022-09-23T12:13:35.451Z,14.60
2022-09-23T12:18:55.443Z,13.30
2022-09-23T12:24:21.955Z,13.70
2022-09-23T12:29:26.374Z,14.30
2022-09-23T12:34:36.898Z,14.50
2022-09-23T12:39:39.863Z,15.30
2022-09-23T12:44:47.184Z,15.80
2022-09-23T12:49:50.855Z,15.50
2022-09-23T12:54:57.532Z,15.70
2022-09-23T13:00:12.857Z,15.50
2022-09-23T13:05:41.747Z,15.40
2022-09-23T13:10:48.272Z,15.00
2022-09-23T13:15:50.812Z,15.00
2022-09-23T13:20:54.947Z,15.10
2022-09-23T13:25:59.735Z,14.70
2022-09-23T13:31:06.896Z,14.80
2022-09-23T13:36:15.768Z,15.40
2022-09-23T13:41:23.657Z,15.70
2022-09-23T13:46:35.031Z,15.10
2022-09-23T13:51:37.014Z,15.00
2022-09-23T13:56:49.226Z,15.30
2022-09-23T14:02:01.896Z,15.40
2022-09-23T14:07:04.677Z,15.20
2022-09-23T14:12:08.349Z,15.00
2022-09-23T14:17:16.847Z,14.70
2022-09-23T14:22:28.546Z,14.30
2022-09-23T14:27:32.463Z,14.20
2022-09-23T14:32:34.526Z,13.60
2022-09-23T14:37:55.256Z,13.30
2022-09-23T14:42:57.075Z,13.20
2022-09-23T14:48:02.075Z,13.40
2022-09-23T14:53:05.228Z,13.60
2022-09-23T14:58:15.080Z,13.90
2022-09-23T15:03:17.602Z,13.90
2022-09-23T15:08:23.033Z,13.80
2022-09-23T15:13:31.565Z,14.00
2022-09-23T15:18:38.893Z,13.70
2022-09-23T15:23:49.364Z,13.60
2022-09-23T15:28:54.132Z,13.30
2022-09-23T15:33:56.457Z,13.20
2022-09-23T15:39:03.468Z,13.30
2022-09-23T15:44:13.662Z,13.60
2022-09-23T15:49:36.689Z,13.70
2022-09-23T15:54:39.233Z,13.40
2022-09-23T15:59:41.237Z,13.10
2022-09-23T16:04:43.099Z,12.50
2022-09-23T16:09:45.045Z,12.10
2022-09-23T16:14:46.898Z,12.30
2022-09-23T16:19:48.746Z,12.10
2022-09-23T16:24:50.792Z,11.60
2022-09-23T16:29:52.707Z,11.20
2022-09-23T16:34:54.573Z,11.00
2022-09-23T16:39:56.737Z,10.70
2022-09-23T16:44:58.642Z,10.30
2022-09-23T16:50:00.487Z,10.00
2022-09-23T16:55:02.359Z,9.60
2022-09-23T17:00:25.878Z,9.40
2022-09-23T17:05:27.871Z,9.20
2022-09-23T17:10:30.656Z,8.80
2022-09-23T17:15:36.161Z,8.60
2022-09-23T17:20:38.903Z,8.50
2022-09-23T17:25:40.752Z,8.40
2022-09-23T17:30:42.595Z,8.20
2022-09-23T17:35:45.587Z,8.00
2022-09-23T17:40:55.497Z,7.70
2022-09-23T17:46:05.332Z,7.60
2022-09-23T17:51:09.755Z,7.60
2022-09-23T17:56:15.867Z,7.60
2022-09-23T18:01:27.214Z,7.60
2022-09-23T18:06:35.538Z,7.60
2022-09-23T18:11:43.848Z,7.40
2022-09-23T18:16:48.079Z,7.40
2022-09-23T18:21:52.320Z,7.10
2022-09-23T18:26:57.321Z,7.00
2022-09-23T18:31:59.403Z,7.00
2022-09-23T18:37:01.342Z,7.00
2022-09-23T18:42:03.236Z,6.90
2022-09-23T18:47:05.133Z,6.80
2022-09-23T18:52:07.035Z,6.70
2022-09-23T18:57:08.903Z,6.60
2022-09-23T19:02:10.827Z,6.60
2022-09-23T19:07:12.769Z,6.40
2022-09-23T19:12:14.784Z,6.40
2022-09-23T19:17:16.667Z,6.40
2022-09-23T19:22:19.773Z,6.30
2022-09-23T19:27:21.615Z,6.40
2022-09-23T19:32:27.078Z,6.30
2022-09-23T19:37:28.936Z,6.20
2022-09-23T19:42:30.944Z,5.90
2022-09-23T19:47:33.074Z,5.90
2022-09-23T19:52:35.277Z,5.90
2022-09-23T19:57:37.137Z,5.80
2022-09-23T20:02:38.972Z,5.80
2022-09-23T20:07:42.186Z,5.90
2022-09-23T20:12:44.426Z,5.90
2022-09-23T20:17:46.351Z,5.90
2022-09-23T20:22:52.126Z,5.80
2022-09-23T20:27:54.631Z,5.80
2022-09-23T20:32:57.892Z,5.70
2022-09-23T20:37:59.759Z,5.60
2022-09-23T20:43:04.099Z,5.60
2022-09-23T20:48:07.565Z,5.60
2022-09-23T20:53:09.824Z,5.50
2022-09-23T20:58:11.669Z,5.50
2022-09-23T21:03:13.726Z,5.50
2022-09-23T21:08:16.003Z,5.40
2022-09-23T21:13:17.841Z,5.30
2022-09-23T21:18:22.529Z,5.30
2022-09-23T21:23:29.891Z,5.40
2022-09-23T21:28:36.070Z,5.30
2022-09-23T21:33:38.028Z,5.40
2022-09-23T21:38:39.913Z,5.40
2022-09-23T21:43:41.870Z,5.30
2022-09-23T21:48:43.780Z,5.30
2022-09-23T21:53:46.821Z,5.20
2022-09-23T21:58:49.813Z,5.20
2022-09-23T22:03:57.446Z,5.20
2022-09-23T22:09:02.136Z,5.00
2022-09-23T22:14:07.489Z,4.90
2022-09-23T22:19:10.985Z,4.90
2022-09-23T22:24:13.390Z,4.90
2022-09-23T22:29:34.898Z,4.70
2022-09-23T22:34:52.535Z,4.80
2022-09-23T22:39:55.145Z,4.90
2022-09-23T22:44:57.024Z,4.90
2022-09-23T22:49:58.866Z,4.80
2022-09-23T22:55:00.957Z,4.80
2022-09-23T23:00:05.274Z,4.80
2022-09-23T23:05:08.473Z,4.70
2022-09-23T23:10:10.647Z,4.60
2022-09-23T23:15:12.904Z,4.50
2022-09-23T23:20:14.865Z,4.50
2022-09-23T23:25:17.137Z,4.60
2022-09-23T23:30:19.279Z,4.60
2022-09-23T23:35:21.144Z,4.60
2022-09-23T23:40:23.063Z,4.50
2022-09-23T23:45:24.977Z,4.60
2022-09-23T23:50:27.069Z,4.40
2022-09-23T23:55:28.927Z,4.50
